Main page
METAR-TAF:

METAR-TAF

Airports :

Prince Albert (Glass Field) Airport

Prince Albert, Saskatchewan, Canada

latitude: 53-13N, longitude: 105-41W, elevation: 428 m

Current weather observation

The report was made 43 minutes ago, at 12:00 UTC
Calm wind
Temperature -9°C
Humidity 92%
Pressure 1010 hPa
Visibility: 24.1 km
Broken clouds at a height of 9000 ft

METAR: CYPA 081200Z 00000KT 15SM BKN090 M09/M10 A2983 RMK AC7 SLP131

Time: 06:43 (12:43 UTC)

Forecast

The report was made 6 hours and 3 minutes ago, at 06:40 UTC
Forecast valid from 08 at 07 UTC to 08 at 19 UTC
Wind 3 kt from variable directions
Visibility: 10 km
Few clouds at a height of 8000 ft
Broken clouds at a height of 22000 ft

TAF: CYPA 080640Z 0807/0819 VRB03KT P6SM FEW080 BKN220 RMK NXT FCST BY 081300Z

Weather observations and forecasts of more than 4000 airports (METAR and TAF reports).

The available stations are represented by yellow and red dots on the map.

Hover mouse over dot to see the name of the station.

Then click to see weather observations and forecasts.

To change the map : click on the green buttons with a black cross to zoom in, on the green button with a dash to zoom out, or on the green arrows for adjacent maps.


METAR-TAF: